sensor_id;sensor_type;location;lat;lon;timestamp;pressure;altitude;pressure_sealevel;temperature
77385;BMP280;66444;49.680;18.538;2023-07-29T00:00:54;96855.60176592632;;;19.913637618673967
77385;BMP280;66444;49.680;18.538;2023-07-29T00:06:03;96857.55339140927;;;20.07100340165198
77385;BMP280;66444;49.680;18.538;2023-07-29T00:11:12;96847.93242822461;;;20.223287543049082
77385;BMP280;66444;49.680;18.538;2023-07-29T00:16:21;96852.31546099306;;;20.32480739359744
77385;BMP280;66444;49.680;18.538;2023-07-29T00:21:30;96855.1769459141;;;20.416173268388956
77385;BMP280;66444;49.680;18.538;2023-07-29T00:26:39;96857.85509280258;;;20.57859683362767
77385;BMP280;66444;49.680;18.538;2023-07-29T00:31:48;96858.15288651803;;;20.761316219903527
77385;BMP280;66444;49.680;18.538;2023-07-29T00:36:57;96859.09846644102;;;20.984629669692367
77385;BMP280;66444;49.680;18.538;2023-07-29T00:42:06;96849.60251662644;;;21.065831766556947
77385;BMP280;66444;49.680;18.538;2023-07-29T00:47:16;96849.4036899103;;;21.136882378952578
77385;BMP280;66444;49.680;18.538;2023-07-29T00:52:27;96856.45867981948;;;21.238381274743006
77385;BMP280;66444;49.680;18.538;2023-07-29T00:57:36;96853.22163374508;;;21.289129849523306
77385;BMP280;66444;49.680;18.538;2023-07-29T01:02:45;96853.87762342201;;;21.329728290252387
77385;BMP280;66444;49.680;18.538;2023-07-29T01:07:55;96855.39438171123;;;21.339877842226997
77385;BMP280;66444;49.680;18.538;2023-07-29T01:13:16;96864.26999625772;;;21.34495260948315
77385;BMP280;66444;49.680;18.538;2023-07-29T01:18:32;96852.68866517035;;;21.339877842226997
77385;BMP280;66444;49.680;18.538;2023-07-29T01:23:43;96852.68866517035;;;21.339877842226997
77385;BMP280;66444;49.680;18.538;2023-07-29T01:28:52;96857.44400137094;;;21.299279494630174
77385;BMP280;66444;49.680;18.538;2023-07-29T01:34:05;96865.88903553259;;;21.319578714994712
77385;BMP280;66444;49.680;18.538;2023-07-29T01:39:21;96856.37709200586;;;21.400774665130303
77385;BMP280;66444;49.680;18.538;2023-07-29T01:44:43;96851.18766708257;;;21.456596016464754
77385;BMP280;66444;49.680;18.538;2023-07-29T01:49:57;96852.27251039649;;;21.48196912514977
77385;BMP280;66444;49.680;18.538;2023-07-29T01:55:06;96855.3053880953;;;21.502267507323996
77385;BMP280;66444;49.680;18.538;2023-07-29T02:00:18;96852.92526220354;;;21.52256579636596
77385;BMP280;66444;49.680;18.538;2023-07-29T02:05:32;96845.9959742389;;;21.512416663486512
77385;BMP280;66444;49.680;18.538;2023-07-29T02:10:41;96841.87908333838;;;21.46674527740106
77385;BMP280;66444;49.680;18.538;2023-07-29T02:15:50;96848.58614296763;;;21.421073419833554
77385;BMP280;66444;49.680;18.538;2023-07-29T02:21:04;96849.65524569775;;;21.319578714994712
77385;BMP280;66444;49.680;18.538;2023-07-29T02:26:13;96857.64693938258;;;21.22823148993775
77385;BMP280;66444;49.680;18.538;2023-07-29T02:31:27;96851.60740993182;;;20.89835080904886
77385;BMP280;66444;49.680;18.538;2023-07-29T02:36:36;96851.78203829177;;;20.537991501111538
77385;BMP280;66444;49.680;18.538;2023-07-29T02:41:45;96848.0180752017;;;20.18775504529476
77385;BMP280;66444;49.680;18.538;2023-07-29T02:46:59;96863.28021339272;;;19.92886680988595
77385;BMP280;66444;49.680;18.538;2023-07-29T02:52:08;96869.15057610504;;;19.71565336571075
77385;BMP280;66444;49.680;18.538;2023-07-29T02:57:23;96864.20641047003;;;19.502429653704166
77385;BMP280;66444;49.680;18.538;2023-07-29T03:02:32;96867.68144086038;;;19.309504114324227
77385;BMP280;66444;49.680;18.538;2023-07-29T03:07:41;96879.43742349274;;;19.207960980711505
77385;BMP280;66444;49.680;18.538;2023-07-29T03:12:56;96870.57764051906;;;19.00486772856675
77385;BMP280;66444;49.680;18.538;2023-07-29T03:18:05;96866.96838992253;;;18.872852120455356
77385;BMP280;66444;49.680;18.538;2023-07-29T03:23:14;96869.44082999261;;;18.781454394431783
77385;BMP280;66444;49.680;18.538;2023-07-29T03:28:24;96871.96959372621;;;18.654509979626162
77385;BMP280;66444;49.680;18.538;2023-07-29T03:33:34;96874.43185062593;;;18.56310774832964
77385;BMP280;66444;49.680;18.538;2023-07-29T03:38:43;96876.12847247503;;;18.46662556929514
77385;BMP280;66444;49.680;18.538;2023-07-29T03:43:53;96874.719081229;;;18.385375788714736
77385;BMP280;66444;49.680;18.538;2023-07-29T03:49:02;96886.30731563443;;;18.354906736826525
77385;BMP280;66444;49.680;18.538;2023-07-29T03:54:11;96872.49062961945;;;18.334593919152393
77385;BMP280;66444;49.680;18.538;2023-07-29T03:59:18;96880.92180178227;;;18.354906736826525
77385;BMP280;66444;49.680;18.538;2023-07-29T04:04:24;96881.62771147556;;;18.395532092778012
77385;BMP280;66444;49.680;18.538;2023-07-29T04:09:30;96888.4242582396;;;18.476781687093897
77385;BMP280;66444;49.680;18.538;2023-07-29T04:14:37;96885.96778933257;;;18.56818569954485
77385;BMP280;66444;49.680;18.538;2023-07-29T04:19:54;96888.42474645309;;;18.710365970339627
77385;BMP280;66444;49.680;18.538;2023-07-29T04:25:08;96887.35543492134;;;18.88300730693154
77385;BMP280;66444;49.680;18.538;2023-07-29T04:30:15;96897.40378728944;;;19.075951426196845
77385;BMP280;66444;49.680;18.538;2023-07-29T04:35:22;96892.91976744415;;;19.207960980711505
77385;BMP280;66444;49.680;18.538;2023-07-29T04:40:29;96893.05980567279;;;19.334889533929527
77385;BMP280;66444;49.680;18.538;2023-07-29T04:45:42;96902.80687643678;;;19.471968285227195
77385;BMP280;66444;49.680;18.538;2023-07-29T04:50:49;96914.83180364658;;;19.624273032136262
77385;BMP280;66444;49.680;18.538;2023-07-29T04:56:10;96908.6443255562;;;19.81718485779129
77385;BMP280;66444;49.680;18.538;2023-07-29T05:01:22;96911.716583606;;;19.99993567620404
77385;BMP280;66444;49.680;18.538;2023-07-29T05:06:34;96913.93454506119;;;20.21313542993739
77385;BMP280;66444;49.680;18.538;2023-07-29T05:11:40;96914.61488045499;;;20.416173268388956
77385;BMP280;66444;49.680;18.538;2023-07-29T05:16:47;96916.46130701587;;;20.609050588542594
77385;BMP280;66444;49.680;18.538;2023-07-29T05:21:54;96913.06716592496;;;20.7308635127265
77385;BMP280;66444;49.680;18.538;2023-07-29T05:27:00;96927.58754475237;;;20.791768717532978
77385;BMP280;66444;49.680;18.538;2023-07-29T05:32:09;96925.21866185406;;;20.812070266203953
77385;BMP280;66444;49.680;18.538;2023-07-29T05:37:16;96924.36833283686;;;20.84252241458744
77385;BMP280;66444;49.680;18.538;2023-07-29T05:42:22;96921.2393055845;;;20.857748410198838
77385;BMP280;66444;49.680;18.538;2023-07-29T05:47:29;96922.5737800658;;;20.938952835369854
77385;BMP280;66444;49.680;18.538;2023-07-29T05:52:36;96921.62796041784;;;21.0049303336069
77385;BMP280;66444;49.680;18.538;2023-07-29T05:57:43;96928.17654744063;;;21.15718234437518
77385;BMP280;66444;49.680;18.538;2023-07-29T06:02:55;96923.03811629309;;;21.339877842226997
77385;BMP280;66444;49.680;18.538;2023-07-29T06:08:02;96930.32741365698;;;21.497192920511587
77385;BMP280;66444;49.680;18.538;2023-07-29T06:13:09;96939.67880356881;;;21.740766521682964
77385;BMP280;66444;49.680;18.538;2023-07-29T06:18:16;96947.60189348091;;;21.93866019770503
77385;BMP280;66444;49.680;18.538;2023-07-29T06:23:23;96941.20840558725;;;22.131471161125226
77385;BMP280;66444;49.680;18.538;2023-07-29T06:28:30;96942.92513519023;;;22.32427371935919
77385;BMP280;66444;49.680;18.538;2023-07-29T06:33:37;96954.0435173667;;;22.598241843329742
77385;BMP280;66444;49.680;18.538;2023-07-29T06:38:44;96951.57679571172;;;22.872192993946374
77385;BMP280;66444;49.680;18.538;2023-07-29T06:43:51;96956.64954875894;;;23.196853859908877
77385;BMP280;66444;49.680;18.538;2023-07-29T06:48:58;96961.68192317277;;;23.521490884013474
77385;BMP280;66444;49.680;18.538;2023-07-29T06:54:05;96954.42903338643;;;23.800456778146327
77385;BMP280;66444;49.680;18.538;2023-07-29T06:59:11;96968.53539392065;;;23.967827862873673
77385;BMP280;66444;49.680;18.538;2023-07-29T07:04:18;96968.53539392065;;;23.967827862873673
77385;BMP280;66444;49.680;18.538;2023-07-29T07:09:25;96959.79813345178;;;24.0185451219324
77385;BMP280;66444;49.680;18.538;2023-07-29T07:14:32;96964.3380002188;;;24.04897519797087
77385;BMP280;66444;49.680;18.538;2023-07-29T07:19:38;96961.00229767876;;;24.008401716686784
77385;BMP280;66444;49.680;18.538;2023-07-29T07:24:46;96960.07398991636;;;23.947540796268733
77385;BMP280;66444;49.680;18.538;2023-07-29T07:29:53;96960.9678242372;;;23.917110021738335
77385;BMP280;66444;49.680;18.538;2023-07-29T07:35:00;96972.68784244075;;;23.79538482814096
77385;BMP280;66444;49.680;18.538;2023-07-29T07:40:11;96968.72501497061;;;23.71423283643089
77385;BMP280;66444;49.680;18.538;2023-07-29T07:45:23;96976.87353146968;;;23.71423283643089
77385;BMP280;66444;49.680;18.538;2023-07-29T07:50:31;96975.13501060545;;;23.866391598526388
77385;BMP280;66444;49.680;18.538;2023-07-29T07:55:38;96967.9155147441;;;23.927253636531532
77385;BMP280;66444;49.680;18.538;2023-07-29T08:00:44;96964.95562445343;;;24.08954830672592
77385;BMP280;66444;49.680;18.538;2023-07-29T08:05:51;96971.22390044275;;;24.36847834493965
77385;BMP280;66444;49.680;18.538;2023-07-29T08:11:03;96960.23807590413;;;24.677816520724445
77385;BMP280;66444;49.680;18.538;2023-07-29T08:16:16;96961.14327667092;;;25.012485889857636
77385;BMP280;66444;49.680;18.538;2023-07-29T08:21:23;96952.33981072213;;;25.245725304353982
77385;BMP280;66444;49.680;18.538;2023-07-29T08:26:30;96959.55223519071;;;25.45867227385752
77385;BMP280;66444;49.680;18.538;2023-07-29T08:31:37;96961.03566575529;;;25.56007198379375
77385;BMP280;66444;49.680;18.538;2023-07-29T08:36:44;96959.98415684262;;;25.53472227458842
77385;BMP280;66444;49.680;18.538;2023-07-29T08:41:52;96956.55421929633;;;25.34712990373373
77385;BMP280;66444;49.680;18.538;2023-07-29T08:47:04;96944.18831526999;;;25.154459174210206
77385;BMP280;66444;49.680;18.538;2023-07-29T08:52:11;96942.69072987541;;;25.05305015104823
77385;BMP280;66444;49.680;18.538;2023-07-29T08:57:20;96950.56403620979;;;24.94149753637612
77385;BMP280;66444;49.680;18.538;2023-07-29T09:02:28;96950.41030397506;;;24.976991855725647
77385;BMP280;66444;49.680;18.538;2023-07-29T09:07:35;96947.23370598705;;;24.992203619563952
77385;BMP280;66444;49.680;18.538;2023-07-29T09:12:43;96938.74346863737;;;25.154459174210206
77385;BMP280;66444;49.680;18.538;2023-07-29T09:17:50;96934.17334485971;;;25.306568343378604
77385;BMP280;66444;49.680;18.538;2023-07-29T09:22:58;96935.3034765638;;;25.57021182673052
77385;BMP280;66444;49.680;18.538;2023-07-29T09:28:07;96932.2938808146;;;25.879465851699933
77385;BMP280;66444;49.680;18.538;2023-07-29T09:33:15;96930.39845134839;;;26.269804760767148
77385;BMP280;66444;49.680;18.538;2023-07-29T09:38:26;96918.84311375198;;;26.705726900417357
77385;BMP280;66444;49.680;18.538;2023-07-29T09:43:34;96915.85367502132;;;27.126401629857718
77385;BMP280;66444;49.680;18.538;2023-07-29T09:48:47;96910.55317162944;;;27.384868622245268
77385;BMP280;66444;49.680;18.538;2023-07-29T09:54:02;96898.48137644689;;;27.450749943964183
77385;BMP280;66444;49.680;18.538;2023-07-29T09:59:11;96909.73465873975;;;27.673725579772146
77385;BMP280;66444;49.680;18.538;2023-07-29T10:04:19;96900.80658363843;;;27.871353654237463
77385;BMP280;66444;49.680;18.538;2023-07-29T10:09:28;96908.88027307072;;;28.16524569885805
77385;BMP280;66444;49.680;18.538;2023-07-29T10:14:36;96902.76479599289;;;28.732705957535654
77385;BMP280;66444;49.680;18.538;2023-07-29T10:19:44;96893.3155137617;;;28.742838512873277
77385;BMP280;66444;49.680;18.538;2023-07-29T10:24:54;96888.70217626313;;;28.600980619387702
77385;BMP280;66444;49.680;18.538;2023-07-29T10:30:11;96895.34302978225;;;28.07403991841711
77385;BMP280;66444;49.680;18.538;2023-07-29T10:35:18;96894.16044622309;;;27.384868622245268
77385;BMP280;66444;49.680;18.538;2023-07-29T10:40:28;96902.48536720361;;;26.999696594057603
77385;BMP280;66444;49.680;18.538;2023-07-29T10:45:51;96895.29913774712;;;26.58407854093239
77385;BMP280;66444;49.680;18.538;2023-07-29T10:53:05;96886.0743833427;;;26.55873471070081
77385;BMP280;66444;49.680;18.538;2023-07-29T10:58:13;96894.19472977395;;;26.7969609697815
77385;BMP280;66444;49.680;18.538;2023-07-29T11:03:25;96884.78304695674;;;26.80709797218442
77385;BMP280;66444;49.680;18.538;2023-07-29T11:08:34;96872.16923535288;;;26.979423450725154
77385;BMP280;66444;49.680;18.538;2023-07-29T11:13:53;96875.64172883227;;;27.131469755619765
77385;BMP280;66444;49.680;18.538;2023-07-29T11:19:07;96872.85958920252;;;27.425411090487614
77385;BMP280;66444;49.680;18.538;2023-07-29T11:24:23;96868.54084282069;;;27.359529390418903
77385;BMP280;66444;49.680;18.538;2023-07-29T11:29:39;96863.8579101369;;;27.217627002997325
77385;BMP280;66444;49.680;18.538;2023-07-29T11:34:47;96866.83944327656;;;27.384868622245268
77385;BMP280;66444;49.680;18.538;2023-07-29T11:39:55;96867.39505411402;;;27.425411090487614
77385;BMP280;66444;49.680;18.538;2023-07-29T11:45:04;96873.57226139188;;;27.577442028559744
77385;BMP280;66444;49.680;18.538;2023-07-29T11:50:22;96865.09708417332;;;27.55717153949663
77385;BMP280;66444;49.680;18.538;2023-07-29T11:55:30;96858.67918078859;;;27.587577238166705
77385;BMP280;66444;49.680;18.538;2023-07-29T12:00:40;96858.56289945559;;;27.881488188635558
77385;BMP280;66444;49.680;18.538;2023-07-29T12:05:48;96870.73005677061;;;27.871353654237463
77385;BMP280;66444;49.680;18.538;2023-07-29T12:10:55;96870.86227594785;;;27.780141796916723
77385;BMP280;66444;49.680;18.538;2023-07-29T12:16:03;96864.29722647187;;;28.10444205477834
77385;BMP280;66444;49.680;18.538;2023-07-29T12:21:10;96859.49181333232;;;28.25644959337078
77385;BMP280;66444;49.680;18.538;2023-07-29T12:26:21;96867.15780164996;;;28.215914761973544
77385;BMP280;66444;49.680;18.538;2023-07-29T12:31:33;96862.10519386247;;;28.144977910630406
77385;BMP280;66444;49.680;18.538;2023-07-29T12:36:44;96855.7486314527;;;28.4895176445134
77385;BMP280;66444;49.680;18.538;2023-07-29T12:41:53;96862.18787750676;;;28.45911816242151
77385;BMP280;66444;49.680;18.538;2023-07-29T12:47:03;96856.06318363716;;;28.307117608748378
77385;BMP280;66444;49.680;18.538;2023-07-29T12:52:12;96846.92502558556;;;28.134843981591985
77385;BMP280;66444;49.680;18.538;2023-07-29T12:57:19;96843.3198140063;;;27.815613298863173
77385;BMP280;66444;49.680;18.538;2023-07-29T13:02:26;96850.75595280087;;;27.60784758753143
77385;BMP280;66444;49.680;18.538;2023-07-29T13:07:33;96838.05665401448;;;27.780141796916723
77385;BMP280;66444;49.680;18.538;2023-07-29T13:12:40;96833.8131254971;;;27.972697950480505
77385;BMP280;66444;49.680;18.538;2023-07-29T13:17:48;96837.48667615876;;;28.144977910630406
77385;BMP280;66444;49.680;18.538;2023-07-29T13:22:55;96826.3134335026;;;30.14090784159489
77385;BMP280;66444;49.680;18.538;2023-07-29T13:28:02;96830.38769523677;;;32.06506040259264
77385;BMP280;66444;49.680;18.538;2023-07-29T13:33:10;96835.95449455686;;;33.14829215174541
77385;BMP280;66444;49.680;18.538;2023-07-29T13:38:18;96824.40811169449;;;32.02456058892422
77385;BMP280;66444;49.680;18.538;2023-07-29T13:43:25;96817.3623455207;;;30.358683068910615
77385;BMP280;66444;49.680;18.538;2023-07-29T13:48:32;96812.94260614361;;;29.624281699676068
77385;BMP280;66444;49.680;18.538;2023-07-29T13:53:40;96790.40199963846;;;30.232070874329658
77385;BMP280;66444;49.680;18.538;2023-07-29T13:58:47;96809.45943193302;;;31.923309424938633
77385;BMP280;66444;49.680;18.538;2023-07-29T14:04:01;96797.08223890829;;;33.37097965963185
77385;BMP280;66444;49.680;18.538;2023-07-29T14:09:13;96788.32980246234;;;34.211017437977716
77385;BMP280;66444;49.680;18.538;2023-07-29T14:14:21;96768.15145352537;;;33.624019967066126
77385;BMP280;66444;49.680;18.538;2023-07-29T14:19:29;96765.98377828697;;;34.059215256012976
77385;BMP280;66444;49.680;18.538;2023-07-29T14:24:36;96757.47621270664;;;35.354425492323934
77385;BMP280;66444;49.680;18.538;2023-07-29T14:29:44;96759.95732975914;;;36.01200339742936
77385;BMP280;66444;49.680;18.538;2023-07-29T14:34:52;96746.65046268671;;;35.9968296315521
77385;BMP280;66444;49.680;18.538;2023-07-29T14:39:59;96762.06928571594;;;36.366043062508105
77385;BMP280;66444;49.680;18.538;2023-07-29T14:45:11;96760.28724000894;;;36.46719201384112
77385;BMP280;66444;49.680;18.538;2023-07-29T14:50:18;96761.62263489436;;;36.8919921843335
77385;BMP280;66444;49.680;18.538;2023-07-29T14:55:26;96772.83569586507;;;37.19539573183283
77385;BMP280;66444;49.680;18.538;2023-07-29T15:00:34;96776.62043600164;;;37.52405926142819
77385;BMP280;66444;49.680;18.538;2023-07-29T15:05:42;96787.34715988483;;;37.48360969261266
77385;BMP280;66444;49.680;18.538;2023-07-29T15:10:49;96782.2497658026;;;36.730168390832844
77385;BMP280;66444;49.680;18.538;2023-07-29T15:15:57;96791.39606527839;;;33.85680419765413
77385;BMP280;66444;49.680;18.538;2023-07-29T15:21:04;96791.95759809579;;;31.432208249671383
77385;BMP280;66444;49.680;18.538;2023-07-29T15:26:12;96798.28576737065;;;29.76610667090863
77385;BMP280;66444;49.680;18.538;2023-07-29T15:31:19;96813.64840732496;;;28.722573378914966
77385;BMP280;66444;49.680;18.538;2023-07-29T15:36:27;96808.51161665042;;;28.023369225487112
77385;BMP280;66444;49.680;18.538;2023-07-29T15:41:34;96807.43336969869;;;27.53690095730126
77385;BMP280;66444;49.680;18.538;2023-07-29T15:46:42;96790.58738441748;;;27.20242290510796
77385;BMP280;66444;49.680;18.538;2023-07-29T15:51:49;96788.95034554727;;;26.93380853771232
77385;BMP280;66444;49.680;18.538;2023-07-29T15:56:57;96809.11440783538;;;26.66517781978473
77385;BMP280;66444;49.680;18.538;2023-07-29T16:02:05;96850.40514033842;;;26.061966260755433
77385;BMP280;66444;49.680;18.538;2023-07-29T16:07:13;96870.71518997995;;;23.967827862873673
77385;BMP280;66444;49.680;18.538;2023-07-29T16:12:20;96867.07228436782;;;22.197430876921864
77385;BMP280;66444;49.680;18.538;2023-07-29T16:17:27;96842.39967469622;;;21.289129849523306
77385;BMP280;66444;49.680;18.538;2023-07-29T16:22:35;96817.87678159885;;;20.944028062466533
77385;BMP280;66444;49.680;18.538;2023-07-29T16:27:42;96803.49888243675;;;20.974479302810504
77385;BMP280;66444;49.680;18.538;2023-07-29T16:32:49;96770.42851943236;;;21.187632117886096
77385;BMP280;66444;49.680;18.538;2023-07-29T16:37:57;96737.94639311069;;;22.04014069987461
77385;BMP280;66444;49.680;18.538;2023-07-29T16:43:05;96716.43774155108;;;24.099691525707023
77385;BMP280;66444;49.680;18.538;2023-07-29T16:48:12;96713.90251398098;;;25.326849170122294
77385;BMP280;66444;49.680;18.538;2023-07-29T16:53:20;96725.95080283965;;;26.47256459943019
77385;BMP280;66444;49.680;18.538;2023-07-29T16:58:32;96715.98167570673;;;26.442151217348872
77385;BMP280;66444;49.680;18.538;2023-07-29T17:03:39;96726.70305088999;;;26.47763347607106
77385;BMP280;66444;49.680;18.538;2023-07-29T17:08:47;96724.2605343564;;;26.99462831695564
77385;BMP280;66444;49.680;18.538;2023-07-29T17:13:54;96695.81730416359;;;27.263238982344046
77385;BMP280;66444;49.680;18.538;2023-07-29T17:19:01;96694.91516267789;;;27.552103902678937
77385;BMP280;66444;49.680;18.538;2023-07-29T17:24:08;96708.66512191544;;;27.86628637830727
77385;BMP280;66444;49.680;18.538;2023-07-29T17:29:16;96702.84181459465;;;27.5318332972005
77385;BMP280;66444;49.680;18.538;2023-07-29T17:34:23;96709.75903982235;;;26.58407854093239
77385;BMP280;66444;49.680;18.538;2023-07-29T17:39:31;96727.33995791039;;;25.60063121584244
77385;BMP280;66444;49.680;18.538;2023-07-29T17:44:38;96713.17515588673;;;24.992203619563952
77385;BMP280;66444;49.680;18.538;2023-07-29T17:49:45;96717.9097315491;;;24.383692204253748
77385;BMP280;66444;49.680;18.538;2023-07-29T17:54:53;96729.1224245989;;;24.038831862574444
77385;BMP280;66444;49.680;18.538;2023-07-29T18:00:01;96715.22961795995;;;23.74466500794515
77385;BMP280;66444;49.680;18.538;2023-07-29T18:05:09;96726.94989400367;;;23.440333863161506
77385;BMP280;66444;49.680;18.538;2023-07-29T18:10:16;96738.61875666385;;;23.13598176361993
77385;BMP280;66444;49.680;18.538;2023-07-29T18:15:24;96734.89746882567;;;22.89248499656096
77385;BMP280;66444;49.680;18.538;2023-07-29T18:20:31;96724.8928211844;;;22.770731583889575
77385;BMP280;66444;49.680;18.538;2023-07-29T18:25:38;96729.5868194922;;;22.547508286125957
77385;BMP280;66444;49.680;18.538;2023-07-29T18:30:47;96737.28158309552;;;22.344568236544728
77385;BMP280;66444;49.680;18.538;2023-07-29T18:35:55;96755.54712358596;;;22.212652210099623
77385;BMP280;66444;49.680;18.538;2023-07-29T18:41:02;96772.60256238039;;;22.090880077844485
77385;BMP280;66444;49.680;18.538;2023-07-29T18:46:10;96770.13113573467;;;22.01984478570521
77385;BMP280;66444;49.680;18.538;2023-07-29T18:51:17;96778.57654189836;;;22.04014069987461
77385;BMP280;66444;49.680;18.538;2023-07-29T18:56:24;96786.4325193;;;21.766138000553475
77385;BMP280;66444;49.680;18.538;2023-07-29T19:01:31;96794.24921542576;;;21.492118327878416
77385;BMP280;66444;49.680;18.538;2023-07-29T19:06:39;96788.72226671512;;;21.27390533820726
77385;BMP280;66444;49.680;18.538;2023-07-29T19:11:46;96796.16851648569;;;21.106432256195696
77385;BMP280;66444;49.680;18.538;2023-07-29T19:16:55;96802.64026501942;;;21.0049303336069
77385;BMP280;66444;49.680;18.538;2023-07-29T19:22:03;96804.05584120378;;;21.050606486899778
77385;BMP280;66444;49.680;18.538;2023-07-29T19:27:11;96788.40308819451;;;21.38047581729479
77385;BMP280;66444;49.680;18.538;2023-07-29T19:32:18;96792.94159938468;;;21.664651211956517
77385;BMP280;66444;49.680;18.538;2023-07-29T19:37:25;96798.55088033067;;;21.847325755050406
77385;BMP280;66444;49.680;18.538;2023-07-29T19:42:32;96804.05963612456;;;21.93866019770503
77385;BMP280;66444;49.680;18.538;2023-07-29T19:47:40;96801.11996064289;;;22.009696793695912
77385;BMP280;66444;49.680;18.538;2023-07-29T19:52:47;96794.82876093172;;;22.04014069987461
77385;BMP280;66444;49.680;18.538;2023-07-29T19:57:54;96810.20733972885;;;22.07058439650573
77385;BMP280;66444;49.680;18.538;2023-07-29T20:03:10;96806.30412140685;;;22.080732248816638
77385;BMP280;66444;49.680;18.538;2023-07-29T20:08:20;96817.1397348537;;;22.080732248816638
77385;BMP280;66444;49.680;18.538;2023-07-29T20:13:31;96820.40116121728;;;22.02999275443144
77385;BMP280;66444;49.680;18.538;2023-07-29T20:18:52;96815.62506028371;;;22.07058439650573
77385;BMP280;66444;49.680;18.538;2023-07-29T20:24:13;96814.11039147004;;;22.060436520911754
77385;BMP280;66444;49.680;18.538;2023-07-29T20:29:25;96789.41134445912;;;22.04014069987461
77385;BMP280;66444;49.680;18.538;2023-07-29T20:34:45;96794.07157129161;;;22.03506673006341
77385;BMP280;66444;49.680;18.538;2023-07-29T20:39:55;96787.89705785016;;;22.02999275443144
77385;BMP280;66444;49.680;18.538;2023-07-29T20:45:12;96803.04018293683;;;22.131471161125226
77385;BMP280;66444;49.680;18.538;2023-07-29T20:50:23;96803.27514295504;;;22.060436520911754
77385;BMP280;66444;49.680;18.538;2023-07-29T20:55:34;96808.13859835395;;;22.111175666050986
77385;BMP280;66444;49.680;18.538;2023-07-29T21:00:45;96812.24451969;;;22.156840399000792
77385;BMP280;66444;49.680;18.538;2023-07-29T21:05:56;96802.1647314252;;;22.16191422911361
77385;BMP280;66444;49.680;18.538;2023-07-29T21:11:07;96811.4872969813;;;22.151766563067213
77385;BMP280;66444;49.680;18.538;2023-07-29T21:16:18;96807.81861926451;;;22.090880077844485
77385;BMP280;66444;49.680;18.538;2023-07-29T21:21:28;96811.08107111834;;;22.04014069987461
77385;BMP280;66444;49.680;18.538;2023-07-29T21:26:39;96808.28269685683;;;21.948808352695778
77385;BMP280;66444;49.680;18.538;2023-07-29T21:31:50;96815.2333636911;;;21.83210316458717
77385;BMP280;66444;49.680;18.538;2023-07-29T21:37:00;96821.52800036132;;;21.67479999559
77385;BMP280;66444;49.680;18.538;2023-07-29T21:42:11;96816.550085727;;;21.532714905962347
77385;BMP280;66444;49.680;18.538;2023-07-29T21:47:21;96811.35251055636;;;21.461670649843292
77385;BMP280;66444;49.680;18.538;2023-07-29T21:52:32;96816.32497891573;;;21.350027370918543
77385;BMP280;66444;49.680;18.538;2023-07-29T21:57:43;96821.4954767232;;;21.16733229216188
77385;BMP280;66444;49.680;18.538;2023-07-29T22:59:46;96845.83365145892;;;22.182209491357206
77385;BMP280;66444;49.680;18.538;2023-07-29T23:04:48;96849.8243236975;;;22.263389609009028
77385;BMP280;66444;49.680;18.538;2023-07-29T23:09:49;96851.33919855655;;;22.273537018941717
77385;BMP280;66444;49.680;18.538;2023-07-29T23:14:51;96856.75876411326;;;22.273537018941717
77385;BMP280;66444;49.680;18.538;2023-07-29T23:19:53;96844.4048595166;;;22.263389609009028